Time;durP1;ratioP1;P1;durP2;ratioP2;P2;SDS_P1;SDS_P2;PMS_P1;PMS_P2;Temp;Humidity;BMP_temperature;BMP_pressure;BME280_temperature;BME280_humidity;BME280_pressure;Samples;Min_cycle;Max_cycle;Signal;HPM_P1;HPM_P2
2022/07/29 00:02:18;;;;;;;;;;;22.30;42.30;;;;;;5033958;28;19931;-73
2022/07/29 00:04:45;;;;;;;;;;;22.30;42.30;;;;;;5034549;28;19921;-71
2022/07/29 00:07:11;;;;;;;;;;;22.30;42.30;;;;;;5049772;28;19952;-72
2022/07/29 00:09:38;;;;;;;;;;;22.30;42.30;;;;;;5035205;28;19968;-70
2022/07/29 00:12:07;;;;;;;;;;;22.30;42.30;;;;;;5035631;28;19940;-70
2022/07/29 00:14:34;;;;;;;;;;;22.30;42.30;;;;;;5033878;28;19976;-70
2022/07/29 00:17:01;;;;;;;;;;;22.30;42.30;;;;;;5034588;28;19920;-71
2022/07/29 00:19:27;;;;;;;;;;;22.30;42.30;;;;;;5050791;28;19986;-70
2022/07/29 00:21:54;;;;;;;;;;;22.30;42.30;;;;;;5067212;28;19920;-71
2022/07/29 00:24:21;;;;;;;;;;;22.30;42.30;;;;;;5034504;28;19986;-71
2022/07/29 00:26:47;;;;;;;;;;;22.30;42.40;;;;;;5033792;28;20008;-71
2022/07/29 00:29:16;;;;;;;;;;;22.30;42.40;;;;;;5032568;28;19927;-72
2022/07/29 00:31:42;;;;;;;;;;;22.30;42.40;;;;;;5064674;28;19991;-70
2022/07/29 00:35:43;;;;;;;;;;;22.30;42.30;;;;;;5032778;28;19921;-71
2022/07/29 00:36:55;;;;;;;;;;;22.30;42.30;;;;;;5062676;28;19932;-71
2022/07/29 00:39:22;;;;;;;;;;;22.30;42.30;;;;;;5034145;28;19925;-71
2022/07/29 00:41:48;;;;;;;;;;;22.30;42.30;;;;;;5034681;28;20255;-71
2022/07/29 00:44:17;;;;;;;;;;;22.30;42.30;;;;;;5034851;28;20369;-73
2022/07/29 00:46:44;;;;;;;;;;;22.30;42.30;;;;;;5032171;28;20333;-72
2022/07/29 00:49:10;;;;;;;;;;;22.30;42.30;;;;;;5067201;28;19925;-70
2022/07/29 00:51:37;;;;;;;;;;;22.30;42.30;;;;;;5032590;28;19925;-71
2022/07/29 00:54:04;;;;;;;;;;;22.20;42.20;;;;;;5031822;28;19925;-70
2022/07/29 00:56:31;;;;;;;;;;;22.30;42.30;;;;;;5051373;28;20043;-71
2022/07/29 00:58:57;;;;;;;;;;;22.30;42.30;;;;;;5034097;28;20035;-70
2022/07/29 01:01:25;;;;;;;;;;;22.30;42.30;;;;;;5049912;28;19921;-70
2022/07/29 01:03:52;;;;;;;;;;;22.20;42.20;;;;;;5048588;28;19928;-70
2022/07/29 01:06:19;;;;;;;;;;;22.30;42.30;;;;;;5030396;28;19933;-70
2022/07/29 01:08:46;;;;;;;;;;;22.30;42.30;;;;;;5032495;28;20010;-70
2022/07/29 01:11:12;;;;;;;;;;;22.20;42.20;;;;;;5031469;28;19921;-72
2022/07/29 01:13:39;;;;;;;;;;;22.20;42.20;;;;;;5031045;28;19939;-71
2022/07/29 01:16:08;;;;;;;;;;;22.30;42.30;;;;;;5031827;28;19960;-72
2022/07/29 01:18:38;;;;;;;;;;;22.30;42.30;;;;;;5035828;28;19925;-71
2022/07/29 01:21:13;;;;;;;;;;;22.20;42.20;;;;;;5029879;28;19966;-70
2022/07/29 01:23:44;;;;;;;;;;;22.20;42.20;;;;;;5031070;28;19921;-71
2022/07/29 01:26:16;;;;;;;;;;;22.20;42.20;;;;;;5048781;28;19928;-71
2022/07/29 01:28:50;;;;;;;;;;;22.20;42.20;;;;;;5029300;28;19936;-70
2022/07/29 01:31:17;;;;;;;;;;;22.20;42.20;;;;;;5030980;28;19947;-70
2022/07/29 01:33:50;;;;;;;;;;;22.20;42.20;;;;;;5031525;28;19951;-70
2022/07/29 01:36:18;;;;;;;;;;;22.20;42.20;;;;;;5033566;28;19929;-70
2022/07/29 01:38:45;;;;;;;;;;;22.20;42.20;;;;;;5048442;28;20438;-70
2022/07/29 01:41:12;;;;;;;;;;;22.20;42.20;;;;;;5032886;28;19921;-71
2022/07/29 01:43:41;;;;;;;;;;;22.20;42.20;;;;;;5031456;28;20196;-70
2022/07/29 01:46:10;;;;;;;;;;;22.20;42.20;;;;;;5061979;28;19925;-71
2022/07/29 01:48:38;;;;;;;;;;;22.20;42.20;;;;;;5048117;28;19938;-70
2022/07/29 01:51:05;;;;;;;;;;;22.20;42.20;;;;;;5029143;28;19925;-70
2022/07/29 01:53:33;;;;;;;;;;;22.20;42.20;;;;;;5047374;28;20304;-70
2022/07/29 01:56:00;;;;;;;;;;;22.20;42.20;;;;;;5048321;28;19959;-70
2022/07/29 01:58:27;;;;;;;;;;;22.20;42.20;;;;;;5032783;28;19935;-70
2022/07/29 02:00:53;;;;;;;;;;;22.20;42.20;;;;;;5060890;28;19960;-71
2022/07/29 02:03:21;;;;;;;;;;;22.20;42.20;;;;;;5030213;28;20370;-71
2022/07/29 02:05:48;;;;;;;;;;;22.20;42.20;;;;;;5029300;28;19928;-70
2022/07/29 02:08:15;;;;;;;;;;;22.20;42.20;;;;;;5065780;28;20440;-70
2022/07/29 02:10:42;;;;;;;;;;;22.20;42.20;;;;;;5042820;28;19921;-70
2022/07/29 02:13:08;;;;;;;;;;;22.20;42.20;;;;;;5028411;28;19962;-70
2022/07/29 02:15:35;;;;;;;;;;;22.20;42.20;;;;;;5032704;28;19924;-70
2022/07/29 02:18:03;;;;;;;;;;;22.20;42.20;;;;;;5027724;28;19963;-70
2022/07/29 02:20:31;;;;;;;;;;;22.20;42.20;;;;;;5030012;28;19935;-70
2022/07/29 02:22:58;;;;;;;;;;;22.20;42.20;;;;;;5029744;28;19933;-68
2022/07/29 02:25:24;;;;;;;;;;;22.20;42.20;;;;;;5032492;28;19971;-70
2022/07/29 02:27:51;;;;;;;;;;;22.20;42.20;;;;;;5047863;28;19978;-70
2022/07/29 02:30:18;;;;;;;;;;;22.20;42.20;;;;;;5015982;28;19937;-71
2022/07/29 02:32:45;;;;;;;;;;;22.20;42.20;;;;;;5049047;28;19979;-70
2022/07/29 02:35:12;;;;;;;;;;;22.20;42.30;;;;;;5062211;28;19925;-70
2022/07/29 02:37:40;;;;;;;;;;;22.20;42.30;;;;;;5053038;28;20471;-70
2022/07/29 02:40:09;;;;;;;;;;;22.20;42.30;;;;;;5053832;28;20007;-70
2022/07/29 02:42:36;;;;;;;;;;;22.20;42.30;;;;;;5036618;28;19937;-70
2022/07/29 02:45:03;;;;;;;;;;;22.20;42.30;;;;;;5032920;28;19928;-70
2022/07/29 02:47:31;;;;;;;;;;;22.20;42.30;;;;;;5032858;28;19921;-69
2022/07/29 02:49:58;;;;;;;;;;;22.20;42.30;;;;;;5033549;28;19928;-69
2022/07/29 02:52:26;;;;;;;;;;;22.20;42.30;;;;;;5032987;28;19932;-71
2022/07/29 02:54:54;;;;;;;;;;;22.20;42.30;;;;;;5033393;28;19986;-71
2022/07/29 02:57:22;;;;;;;;;;;22.10;42.30;;;;;;5033994;28;19920;-69
2022/07/29 02:59:50;;;;;;;;;;;22.20;42.30;;;;;;5035066;28;19931;-70
2022/07/29 03:02:17;;;;;;;;;;;22.20;42.30;;;;;;5064703;28;19932;-70
2022/07/29 03:04:44;;;;;;;;;;;22.20;42.40;;;;;;5033681;28;19927;-72
2022/07/29 03:07:11;;;;;;;;;;;22.20;42.30;;;;;;5034844;28;19966;-70
2022/07/29 03:09:38;;;;;;;;;;;22.20;42.30;;;;;;5032811;28;19921;-70
2022/07/29 03:12:06;;;;;;;;;;;22.10;42.20;;;;;;5050852;28;19974;-70
2022/07/29 03:14:33;;;;;;;;;;;22.10;42.30;;;;;;5052515;28;19977;-71
2022/07/29 03:17:00;;;;;;;;;;;22.20;42.30;;;;;;5030140;28;19960;-70
2022/07/29 03:19:29;;;;;;;;;;;22.10;42.30;;;;;;5033302;28;19925;-70
2022/07/29 03:21:56;;;;;;;;;;;22.10;42.30;;;;;;5031370;28;20301;-70
2022/07/29 03:24:27;;;;;;;;;;;22.10;42.30;;;;;;5063915;28;19928;-70
2022/07/29 03:26:55;;;;;;;;;;;22.10;42.30;;;;;;5035507;28;19925;-70
2022/07/29 03:29:23;;;;;;;;;;;22.10;42.30;;;;;;5035776;28;20272;-69
2022/07/29 03:31:50;;;;;;;;;;;22.10;42.30;;;;;;5032030;28;19933;-70
2022/07/29 03:34:17;;;;;;;;;;;22.10;42.30;;;;;;5031471;28;19933;-71
2022/07/29 03:36:44;;;;;;;;;;;22.10;42.30;;;;;;5034955;28;20024;-71
2022/07/29 03:39:12;;;;;;;;;;;22.10;42.30;;;;;;5032513;28;20267;-70
2022/07/29 03:41:41;;;;;;;;;;;22.10;42.30;;;;;;5030677;28;19928;-70
2022/07/29 03:44:10;;;;;;;;;;;22.10;42.40;;;;;;5049293;28;19960;-70
2022/07/29 03:46:38;;;;;;;;;;;22.10;42.40;;;;;;5052061;28;19940;-71
2022/07/29 03:49:07;;;;;;;;;;;22.10;42.40;;;;;;5032040;28;19935;-70
2022/07/29 03:51:34;;;;;;;;;;;22.10;43.00;;;;;;5034465;28;19921;-73
2022/07/29 03:54:01;;;;;;;;;;;22.10;42.50;;;;;;5064830;28;19933;-70
2022/07/29 03:56:28;;;;;;;;;;;22.10;42.50;;;;;;5052261;28;19920;-70
2022/07/29 03:58:55;;;;;;;;;;;22.10;42.50;;;;;;5049314;28;19984;-70
2022/07/29 04:01:22;;;;;;;;;;;22.10;42.50;;;;;;5046611;28;19937;-70
2022/07/29 04:03:50;;;;;;;;;;;22.10;42.50;;;;;;5032006;28;19928;-70
2022/07/29 04:06:17;;;;;;;;;;;22.10;42.50;;;;;;5050961;28;20023;-70
2022/07/29 04:08:44;;;;;;;;;;;22.10;42.50;;;;;;5029517;28;19927;-71
2022/07/29 04:11:11;;;;;;;;;;;22.10;42.50;;;;;;5032390;28;19943;-72
2022/07/29 04:13:38;;;;;;;;;;;22.10;42.50;;;;;;5031591;28;19931;-71
2022/07/29 04:16:05;;;;;;;;;;;22.10;42.50;;;;;;5033395;28;19921;-70
2022/07/29 04:18:32;;;;;;;;;;;22.10;42.50;;;;;;5015217;28;19932;-70
2022/07/29 04:21:01;;;;;;;;;;;22.10;42.60;;;;;;5030273;28;20675;-71
2022/07/29 04:23:28;;;;;;;;;;;22.10;42.60;;;;;;5025289;28;19928;-72
2022/07/29 04:25:54;;;;;;;;;;;22.10;42.60;;;;;;5065346;28;19920;-70
2022/07/29 04:28:21;;;;;;;;;;;22.10;42.60;;;;;;5049024;28;19962;-70
2022/07/29 04:30:48;;;;;;;;;;;22.10;42.60;;;;;;5032846;28;19924;-71
2022/07/29 04:33:15;;;;;;;;;;;22.00;42.50;;;;;;5031445;28;19935;-71
2022/07/29 04:35:42;;;;;;;;;;;22.10;42.60;;;;;;5027487;28;19983;-70
2022/07/29 04:38:10;;;;;;;;;;;22.10;42.70;;;;;;5049605;28;19928;-70
2022/07/29 04:40:36;;;;;;;;;;;22.10;42.70;;;;;;5062419;28;19936;-71
2022/07/29 04:43:03;;;;;;;;;;;22.10;42.70;;;;;;5023913;28;20012;-69
2022/07/29 04:45:32;;;;;;;;;;;22.10;42.70;;;;;;5043785;28;19936;-73
2022/07/29 04:47:59;;;;;;;;;;;22.10;42.70;;;;;;5048808;28;19925;-70
2022/07/29 04:50:25;;;;;;;;;;;22.00;42.60;;;;;;5049101;28;19944;-72
2022/07/29 04:52:54;;;;;;;;;;;22.10;42.70;;;;;;5050335;28;19975;-70
2022/07/29 04:55:23;;;;;;;;;;;22.10;42.80;;;;;;5063859;28;19959;-71
2022/07/29 04:57:50;;;;;;;;;;;22.10;42.80;;;;;;5066338;28;19920;-72
2022/07/29 05:00:17;;;;;;;;;;;22.10;42.80;;;;;;5050327;28;19933;-69
2022/07/29 05:02:43;;;;;;;;;;;22.10;42.80;;;;;;5049310;28;19927;-70
2022/07/29 05:05:10;;;;;;;;;;;22.10;42.80;;;;;;5063926;28;19970;-69
2022/07/29 05:07:37;;;;;;;;;;;22.10;42.80;;;;;;5066059;28;19939;-70
2022/07/29 05:10:04;;;;;;;;;;;22.10;42.80;;;;;;5031607;28;20655;-70
2022/07/29 05:12:32;;;;;;;;;;;22.10;42.80;;;;;;5029624;28;20015;-69
2022/07/29 05:14:59;;;;;;;;;;;22.00;42.70;;;;;;5032340;28;20392;-70
2022/07/29 05:17:26;;;;;;;;;;;22.10;42.80;;;;;;5029273;28;19925;-70
2022/07/29 05:19:53;;;;;;;;;;;22.10;42.90;;;;;;5032610;28;19931;-69
2022/07/29 05:22:19;;;;;;;;;;;22.10;42.90;;;;;;5028267;28;19921;-70
2022/07/29 05:24:46;;;;;;;;;;;22.10;42.90;;;;;;5048547;28;19925;-69
2022/07/29 05:27:13;;;;;;;;;;;22.00;42.80;;;;;;5030731;28;19952;-70
2022/07/29 05:29:41;;;;;;;;;;;22.10;42.90;;;;;;5031234;28;19966;-71
2022/07/29 05:32:08;;;;;;;;;;;22.00;42.80;;;;;;5049013;28;20018;-70
2022/07/29 05:34:35;;;;;;;;;;;22.10;43.00;;;;;;5063948;28;20273;-69
2022/07/29 05:37:01;;;;;;;;;;;22.00;42.90;;;;;;5026747;28;19921;-70
2022/07/29 05:39:28;;;;;;;;;;;22.10;42.90;;;;;;5027550;28;19928;-69
2022/07/29 05:41:55;;;;;;;;;;;22.10;43.00;;;;;;5033002;28;19974;-70
2022/07/29 05:44:21;;;;;;;;;;;22.10;43.00;;;;;;5030448;28;20365;-70
2022/07/29 05:46:49;;;;;;;;;;;22.10;43.00;;;;;;5046167;28;20075;-69
2022/07/29 05:49:16;;;;;;;;;;;22.10;43.00;;;;;;5031147;28;20444;-70
2022/07/29 05:51:43;;;;;;;;;;;22.00;42.90;;;;;;5027540;28;20003;-69
2022/07/29 05:54:10;;;;;;;;;;;22.10;43.10;;;;;;5048358;28;19921;-66
2022/07/29 05:56:40;;;;;;;;;;;22.10;43.10;;;;;;5047307;28;20515;-69
2022/07/29 05:59:07;;;;;;;;;;;22.10;43.10;;;;;;5030476;28;20476;-70
2022/07/29 06:01:39;;;;;;;;;;;22.10;43.20;;;;;;5032062;28;19963;-71
2022/07/29 06:04:07;;;;;;;;;;;22.10;43.20;;;;;;5029422;28;19928;-72
2022/07/29 06:06:34;;;;;;;;;;;22.10;43.20;;;;;;5028552;28;19957;-72
2022/07/29 06:09:01;;;;;;;;;;;22.10;43.20;;;;;;5027758;28;20006;-71
2022/07/29 06:11:27;;;;;;;;;;;22.10;43.30;;;;;;5024946;28;20021;-71
2022/07/29 06:13:54;;;;;;;;;;;22.10;43.30;;;;;;5031803;28;20023;-71
2022/07/29 06:16:21;;;;;;;;;;;22.10;43.30;;;;;;5030619;28;19920;-70
2022/07/29 06:18:50;;;;;;;;;;;22.10;43.30;;;;;;5029056;28;19928;-70
2022/07/29 06:21:19;;;;;;;;;;;22.10;43.40;;;;;;5027055;28;19956;-70
2022/07/29 06:23:46;;;;;;;;;;;22.10;43.40;;;;;;5030621;28;19951;-70
2022/07/29 06:26:13;;;;;;;;;;;22.10;43.40;;;;;;5032224;28;19928;-71
2022/07/29 06:28:42;;;;;;;;;;;22.10;43.40;;;;;;5026869;28;19924;-72
2022/07/29 06:31:11;;;;;;;;;;;22.10;43.40;;;;;;5029427;28;19920;-71
2022/07/29 06:33:38;;;;;;;;;;;22.10;43.40;;;;;;5045074;28;19924;-71
2022/07/29 06:36:05;;;;;;;;;;;22.10;43.50;;;;;;5061688;28;19921;-71
2022/07/29 06:38:34;;;;;;;;;;;22.10;43.50;;;;;;5029457;28;20016;-71
2022/07/29 06:41:05;;;;;;;;;;;22.10;43.50;;;;;;5044456;28;19947;-71
2022/07/29 06:43:33;;;;;;;;;;;22.10;43.50;;;;;;5040720;28;19933;-70
2022/07/29 06:46:02;;;;;;;;;;;22.10;43.60;;;;;;5029433;28;19948;-70
2022/07/29 06:48:29;;;;;;;;;;;22.10;43.50;;;;;;5059437;28;19921;-72
2022/07/29 06:50:56;;;;;;;;;;;22.10;43.60;;;;;;5029615;28;20010;-70
2022/07/29 06:53:23;;;;;;;;;;;22.10;43.70;;;;;;5026246;28;19929;-72
2022/07/29 06:55:51;;;;;;;;;;;22.10;43.70;;;;;;5027779;28;20017;-71
2022/07/29 06:58:21;;;;;;;;;;;22.10;43.70;;;;;;5052106;28;19921;-70
2022/07/29 07:00:48;;;;;;;;;;;22.10;43.70;;;;;;5059501;28;19968;-69
2022/07/29 07:03:15;;;;;;;;;;;22.10;43.80;;;;;;5028312;28;19960;-72
2022/07/29 07:05:41;;;;;;;;;;;22.10;43.80;;;;;;5035097;28;19921;-71
2022/07/29 07:08:08;;;;;;;;;;;22.10;43.80;;;;;;5026755;28;19944;-72
2022/07/29 07:10:35;;;;;;;;;;;22.10;43.80;;;;;;5027062;28;19927;-72
2022/07/29 07:13:03;;;;;;;;;;;22.10;43.80;;;;;;5026140;28;19994;-70
2022/07/29 07:15:30;;;;;;;;;;;22.20;43.90;;;;;;5029224;28;19925;-70
2022/07/29 07:17:57;;;;;;;;;;;22.20;43.90;;;;;;5059039;28;20385;-69
2022/07/29 07:20:24;;;;;;;;;;;22.20;43.90;;;;;;5021622;28;20396;-66
2022/07/29 07:22:50;;;;;;;;;;;22.10;43.90;;;;;;5027804;28;19928;-65
2022/07/29 07:25:17;;;;;;;;;;;22.20;43.90;;;;;;5028990;28;20219;-71
2022/07/29 07:27:44;;;;;;;;;;;22.20;43.90;;;;;;5063860;28;20341;-66
2022/07/29 07:30:13;;;;;;;;;;;22.20;43.90;;;;;;5033115;28;19974;-65
2022/07/29 07:32:40;;;;;;;;;;;22.20;43.90;;;;;;5062848;28;19921;-65
2022/07/29 07:35:07;;;;;;;;;;;22.20;43.90;;;;;;5063924;28;20002;-68
2022/07/29 07:37:34;;;;;;;;;;;22.20;43.90;;;;;;5030897;28;20349;-66
2022/07/29 07:40:01;;;;;;;;;;;22.20;43.90;;;;;;5048019;28;19933;-64
2022/07/29 07:42:27;;;;;;;;;;;22.20;43.90;;;;;;5032657;28;19936;-65
2022/07/29 07:44:54;;;;;;;;;;;22.20;44.00;;;;;;5032798;28;20366;-68
2022/07/29 07:47:25;;;;;;;;;;;22.20;43.90;;;;;;5031453;28;19924;-66
2022/07/29 07:49:52;;;;;;;;;;;22.30;44.10;;;;;;5049873;28;20055;-65
2022/07/29 07:52:20;;;;;;;;;;;22.30;44.10;;;;;;5031632;28;20290;-66
2022/07/29 07:54:47;;;;;;;;;;;22.30;44.10;;;;;;5030399;28;19921;-67
2022/07/29 07:57:15;;;;;;;;;;;22.30;44.10;;;;;;5030878;28;19925;-66
2022/07/29 07:59:41;;;;;;;;;;;22.30;44.10;;;;;;5031796;28;19925;-67
2022/07/29 08:02:08;;;;;;;;;;;22.30;44.10;;;;;;5030769;28;19932;-67
2022/07/29 08:04:36;;;;;;;;;;;22.30;44.10;;;;;;5031760;28;19933;-67
2022/07/29 08:07:03;;;;;;;;;;;22.30;44.10;;;;;;5032089;28;20350;-65
2022/07/29 08:09:30;;;;;;;;;;;22.30;44.10;;;;;;5027343;28;20000;-65
2022/07/29 08:11:57;;;;;;;;;;;22.30;44.10;;;;;;5045190;28;20362;-65
2022/07/29 08:14:24;;;;;;;;;;;22.40;44.10;;;;;;5043870;28;20146;-67
2022/07/29 08:16:51;;;;;;;;;;;22.40;44.10;;;;;;5031274;28;19924;-68
2022/07/29 08:19:17;;;;;;;;;;;22.30;44.10;;;;;;5045490;28;19920;-66
2022/07/29 08:21:46;;;;;;;;;;;22.40;44.20;;;;;;5045073;28;20400;-68
2022/07/29 08:26:57;;;;;;;;;;;22.40;44.20;;;;;;5038892;28;19971;-68
2022/07/29 08:29:24;;;;;;;;;;;22.40;44.20;;;;;;5063793;28;19921;-67
2022/07/29 08:31:51;;;;;;;;;;;22.40;44.20;;;;;;5026334;28;19932;-65
2022/07/29 08:34:18;;;;;;;;;;;22.40;44.30;;;;;;5030939;28;20362;-65
2022/07/29 08:36:46;;;;;;;;;;;22.40;44.30;;;;;;5029856;28;19940;-65
2022/07/29 08:39:13;;;;;;;;;;;22.40;44.90;;;;;;5032957;28;19976;-65
2022/07/29 08:41:39;;;;;;;;;;;22.50;44.40;;;;;;5029343;28;19940;-69
2022/07/29 08:44:06;;;;;;;;;;;22.40;44.30;;;;;;5062105;28;20019;-65
2022/07/29 08:46:33;;;;;;;;;;;22.40;44.30;;;;;;5042984;28;20440;-66
2022/07/29 08:49:00;;;;;;;;;;;22.40;44.30;;;;;;5027682;28;19921;-67
2022/07/29 08:51:26;;;;;;;;;;;22.50;44.40;;;;;;5025364;28;19933;-71
2022/07/29 08:53:54;;;;;;;;;;;22.50;44.50;;;;;;5047014;28;19979;-70
2022/07/29 08:56:22;;;;;;;;;;;22.50;44.50;;;;;;5042367;28;19925;-65
2022/07/29 08:58:49;;;;;;;;;;;22.40;44.40;;;;;;5030667;28;19920;-66
2022/07/29 09:01:17;;;;;;;;;;;22.50;44.50;;;;;;5059887;28;20266;-67
2022/07/29 09:03:44;;;;;;;;;;;22.50;44.50;;;;;;5030299;28;19947;-66
2022/07/29 09:06:13;;;;;;;;;;;22.50;44.50;;;;;;5029831;28;19928;-66
2022/07/29 09:08:40;;;;;;;;;;;22.50;44.50;;;;;;5028194;28;20378;-67
2022/07/29 09:11:09;;;;;;;;;;;22.50;44.50;;;;;;5028710;28;20035;-67
2022/07/29 09:13:36;;;;;;;;;;;22.50;44.50;;;;;;5047946;28;19921;-66
2022/07/29 09:16:03;;;;;;;;;;;22.50;44.50;;;;;;5044372;28;20412;-64
2022/07/29 09:18:36;;;;;;;;;;;22.50;44.50;;;;;;5047258;28;19971;-66
2022/07/29 09:24:02;;;;;;;;;;;22.50;44.50;;;;;;5063192;28;20396;-67
2022/07/29 09:26:31;;;;;;;;;;;22.60;44.60;;;;;;5046370;28;19925;-65
2022/07/29 09:28:58;;;;;;;;;;;22.60;44.60;;;;;;5031170;28;20023;-65
2022/07/29 09:31:41;;;;;;;;;;;22.60;44.60;;;;;;5143532;27;19911;-62
2022/07/29 09:34:08;;;;;;;;;;;22.60;44.60;;;;;;5117677;27;19958;-60
2022/07/29 09:36:41;;;;;;;;;;;22.60;44.60;;;;;;5125797;28;19920;-61
2022/07/29 09:39:08;;;;;;;;;;;22.60;44.60;;;;;;5124829;28;19920;-61
2022/07/29 09:41:45;;;;;;;;;;;22.60;44.60;;;;;;5121215;28;19919;-61
2022/07/29 09:44:11;;;;;;;;;;;22.60;44.70;;;;;;5123698;28;20371;-61
2022/07/29 09:46:38;;;;;;;;;;;22.60;44.70;;;;;;5120081;28;20283;-60
2022/07/29 09:49:09;;;;;;;;;;;22.60;44.60;;;;;;5123794;27;19919;-60
2022/07/29 09:51:36;;;;;;;;;;;22.60;44.70;;;;;;5123080;28;20403;-60
2022/07/29 09:54:04;;;;;;;;;;;22.70;44.80;;;;;;5131187;27;19972;-60
2022/07/29 09:56:40;;;;;;;;;;;22.70;44.80;;;;;;5123545;28;19920;-61
2022/07/29 09:59:07;;;;;;;;;;;22.70;44.80;;;;;;5121631;28;19931;-61
2022/07/29 10:01:33;;;;;;;;;;;22.70;44.70;;;;;;5122783;28;20010;-60
2022/07/29 10:04:00;;;;;;;;;;;22.70;44.70;;;;;;5126839;27;20081;-60
2022/07/29 10:06:28;;;;;;;;;;;22.70;44.80;;;;;;5123893;28;19919;-60
2022/07/29 10:08:55;;;;;;;;;;;22.70;44.70;;;;;;5123739;28;20325;-61
2022/07/29 10:11:22;;;;;;;;;;;22.70;44.80;;;;;;5115056;28;20443;-60
2022/07/29 10:13:49;;;;;;;;;;;22.70;44.80;;;;;;5116334;28;19964;-61
2022/07/29 10:16:16;;;;;;;;;;;22.70;44.80;;;;;;5119224;28;20018;-60
2022/07/29 10:18:43;;;;;;;;;;;22.70;44.70;;;;;;5124241;28;19919;-60
2022/07/29 10:21:10;;;;;;;;;;;22.70;44.80;;;;;;5121783;27;19963;-61
2022/07/29 10:23:38;;;;;;;;;;;22.70;44.80;;;;;;5122642;28;20264;-60
2022/07/29 10:26:05;;;;;;;;;;;22.70;44.80;;;;;;5121790;28;19920;-60
2022/07/29 10:28:32;;;;;;;;;;;22.70;44.80;;;;;;5124202;28;19923;-62
2022/07/29 10:31:00;;;;;;;;;;;22.70;44.80;;;;;;5109527;28;19973;-60
2022/07/29 10:33:31;;;;;;;;;;;22.80;44.80;;;;;;5112598;28;19927;-60
2022/07/29 10:36:03;;;;;;;;;;;22.80;44.80;;;;;;5125182;27;20006;-60
2022/07/29 10:38:47;;;;;;;;;;;22.80;44.80;;;;;;5121654;28;20031;-60
2022/07/29 10:41:29;;;;;;;;;;;22.80;44.80;;;;;;5108183;28;19984;-61
2022/07/29 10:43:57;;;;;;;;;;;22.80;44.90;;;;;;5100079;28;19943;-60
2022/07/29 10:46:24;;;;;;;;;;;22.80;44.90;;;;;;5104936;28;20361;-61
2022/07/29 10:49:07;;;;;;;;;;;22.80;44.80;;;;;;5107305;28;19973;-60
2022/07/29 10:51:52;;;;;;;;;;;22.80;44.90;;;;;;5106435;28;19926;-61
2022/07/29 10:54:19;;;;;;;;;;;22.80;44.90;;;;;;5104444;28;19924;-61
2022/07/29 10:56:48;;;;;;;;;;;22.90;45.00;;;;;;5109948;28;20265;-62
2022/07/29 10:59:25;;;;;;;;;;;22.90;44.90;;;;;;5106542;28;19920;-61
2022/07/29 11:01:52;;;;;;;;;;;22.80;44.80;;;;;;5109539;28;19974;-61
2022/07/29 11:04:24;;;;;;;;;;;22.80;44.80;;;;;;5114090;28;19919;-62
2022/07/29 11:07:09;;;;;;;;;;;22.80;44.90;;;;;;5106714;28;20003;-65
2022/07/29 11:09:36;;;;;;;;;;;22.90;44.90;;;;;;5106153;28;19968;-62
2022/07/29 11:12:04;;;;;;;;;;;22.80;44.80;;;;;;5105250;28;19989;-61
2022/07/29 11:14:55;;;;;;;;;;;22.80;44.80;;;;;;5097274;28;20250;-61
2022/07/29 11:17:22;;;;;;;;;;;22.80;44.80;;;;;;5086832;28;19923;-61
2022/07/29 11:19:49;;;;;;;;;;;22.90;44.90;;;;;;5108611;27;19927;-62
2022/07/29 11:22:31;;;;;;;;;;;22.80;44.80;;;;;;5107166;28;20011;-61
2022/07/29 11:25:13;;;;;;;;;;;22.80;44.80;;;;;;5120620;27;19945;-61
2022/07/29 11:27:41;;;;;;;;;;;22.80;44.80;;;;;;5108432;28;20062;-61
2022/07/29 11:30:09;;;;;;;;;;;22.90;44.90;;;;;;5105200;28;20400;-61
2022/07/29 11:32:36;;;;;;;;;;;22.90;44.80;;;;;;5107446;28;20438;-61
2022/07/29 11:35:13;;;;;;;;;;;22.90;44.80;;;;;;5112638;28;19988;-61
2022/07/29 11:37:40;;;;;;;;;;;22.90;44.80;;;;;;5108330;28;19972;-61
2022/07/29 11:40:14;;;;;;;;;;;22.90;44.70;;;;;;5104776;28;19951;-62
2022/07/29 11:42:43;;;;;;;;;;;22.90;44.70;;;;;;5105613;28;20014;-62
2022/07/29 11:45:12;;;;;;;;;;;22.90;44.70;;;;;;5109089;28;20365;-61
2022/07/29 11:47:39;;;;;;;;;;;22.90;44.70;;;;;;5110985;28;20011;-61
2022/07/29 11:50:07;;;;;;;;;;;22.90;44.70;;;;;;5112532;28;19964;-62
2022/07/29 11:52:36;;;;;;;;;;;22.90;44.70;;;;;;5122096;27;19920;-60
2022/07/29 11:55:04;;;;;;;;;;;22.90;44.60;;;;;;5099086;28;19930;-60
2022/07/29 11:57:31;;;;;;;;;;;22.90;44.70;;;;;;5109876;28;19932;-59
2022/07/29 11:59:59;;;;;;;;;;;22.90;44.70;;;;;;5105002;28;19951;-60
2022/07/29 12:02:26;;;;;;;;;;;22.90;44.70;;;;;;5104620;28;20280;-62
2022/07/29 12:04:53;;;;;;;;;;;22.90;44.70;;;;;;5101426;28;19931;-60
2022/07/29 12:07:20;;;;;;;;;;;22.90;44.70;;;;;;5107945;28;19996;-61
2022/07/29 12:09:50;;;;;;;;;;;22.90;44.60;;;;;;5104797;28;20301;-60
2022/07/29 12:12:16;;;;;;;;;;;22.90;44.60;;;;;;5103285;28;20372;-60
2022/07/29 12:14:46;;;;;;;;;;;22.90;44.50;;;;;;5102515;28;19931;-60
2022/07/29 12:17:27;;;;;;;;;;;22.90;44.50;;;;;;5120546;27;20015;-60
2022/07/29 12:19:54;;;;;;;;;;;23.00;44.70;;;;;;5109689;28;19923;-61
2022/07/29 12:22:25;;;;;;;;;;;22.90;44.50;;;;;;5111050;28;19926;-61
2022/07/29 12:24:52;;;;;;;;;;;23.00;44.60;;;;;;5101044;28;20433;-61
2022/07/29 12:27:19;;;;;;;;;;;23.00;44.60;;;;;;5104147;28;19919;-62
2022/07/29 12:29:47;;;;;;;;;;;23.00;44.60;;;;;;5110717;28;19920;-61
2022/07/29 12:32:14;;;;;;;;;;;23.00;44.50;;;;;;5104148;28;19920;-61
2022/07/29 12:34:42;;;;;;;;;;;23.00;44.60;;;;;;5107639;28;20280;-61
2022/07/29 12:37:10;;;;;;;;;;;23.00;44.50;;;;;;5110600;28;19969;-61
2022/07/29 12:39:37;;;;;;;;;;;23.00;44.60;;;;;;5105093;28;19985;-61
2022/07/29 12:42:11;;;;;;;;;;;23.00;44.80;;;;;;5102760;28;19920;-61
2022/07/29 12:44:44;;;;;;;;;;;23.00;44.50;;;;;;5108817;28;19920;-61
2022/07/29 12:47:11;;;;;;;;;;;23.10;44.60;;;;;;5105368;28;20441;-61
2022/07/29 12:49:37;;;;;;;;;;;23.10;44.60;;;;;;5108390;28;19923;-61
2022/07/29 12:52:19;;;;;;;;;;;23.00;44.50;;;;;;5109662;27;20253;-62
2022/07/29 12:54:48;;;;;;;;;;;23.10;44.60;;;;;;5106110;28;19920;-62
2022/07/29 12:57:15;;;;;;;;;;;23.00;44.40;;;;;;5103762;27;20264;-61
2022/07/29 12:59:42;;;;;;;;;;;23.10;44.50;;;;;;5100760;28;20012;-62
2022/07/29 13:02:10;;;;;;;;;;;23.00;44.40;;;;;;5103341;28;20315;-60
2022/07/29 13:04:40;;;;;;;;;;;23.10;44.40;;;;;;5090895;28;19920;-62
2022/07/29 13:07:07;;;;;;;;;;;23.10;44.40;;;;;;5100453;28;19920;-60
2022/07/29 13:09:37;;;;;;;;;;;23.10;44.30;;;;;;5100148;28;20374;-60
2022/07/29 13:12:08;;;;;;;;;;;23.10;44.30;;;;;;5100032;28;19990;-61
2022/07/29 13:14:35;;;;;;;;;;;23.10;44.30;;;;;;5104443;28;19920;-61
2022/07/29 13:17:02;;;;;;;;;;;23.10;44.30;;;;;;5086111;28;19934;-60
2022/07/29 13:19:36;;;;;;;;;;;23.10;44.30;;;;;;5103115;28;20029;-61
2022/07/29 13:22:03;;;;;;;;;;;23.10;44.20;;;;;;5108813;28;19927;-60
2022/07/29 13:24:30;;;;;;;;;;;23.10;44.20;;;;;;5109954;28;19924;-60
2022/07/29 13:26:57;;;;;;;;;;;23.10;44.20;;;;;;5102130;28;19920;-60
2022/07/29 13:29:26;;;;;;;;;;;23.10;44.10;;;;;;5105119;28;19920;-61
2022/07/29 13:31:52;;;;;;;;;;;23.10;44.10;;;;;;5102706;28;20365;-60
2022/07/29 13:34:21;;;;;;;;;;;23.10;44.10;;;;;;5104175;28;19920;-59
2022/07/29 13:36:48;;;;;;;;;;;23.10;44.10;;;;;;5097097;28;20018;-61
2022/07/29 13:39:14;;;;;;;;;;;23.10;44.10;;;;;;5101753;28;19924;-61
2022/07/29 13:41:41;;;;;;;;;;;23.10;44.10;;;;;;5100324;28;19920;-61
2022/07/29 13:44:08;;;;;;;;;;;23.10;44.10;;;;;;5098602;28;20390;-60
2022/07/29 13:46:36;;;;;;;;;;;23.10;44.10;;;;;;5100893;28;20006;-61
2022/07/29 13:49:03;;;;;;;;;;;23.10;43.90;;;;;;5111321;28;19924;-61
2022/07/29 13:51:30;;;;;;;;;;;23.10;43.90;;;;;;5095271;28;19974;-61
2022/07/29 13:53:56;;;;;;;;;;;23.10;43.90;;;;;;5121456;28;20296;-61
2022/07/29 13:56:23;;;;;;;;;;;23.10;43.90;;;;;;5108018;28;19975;-61
2022/07/29 13:58:50;;;;;;;;;;;23.10;43.90;;;;;;5106227;28;19930;-61
2022/07/29 14:01:17;;;;;;;;;;;23.10;43.90;;;;;;5099124;28;20007;-61
2022/07/29 14:03:45;;;;;;;;;;;23.10;43.90;;;;;;5107628;28;19920;-62
2022/07/29 14:06:12;;;;;;;;;;;23.10;43.90;;;;;;5096348;28;20319;-62
2022/07/29 14:08:40;;;;;;;;;;;23.10;43.90;;;;;;5091475;28;19989;-61
2022/07/29 14:11:06;;;;;;;;;;;23.10;43.90;;;;;;5091957;28;19920;-61
2022/07/29 14:13:33;;;;;;;;;;;23.10;44.50;;;;;;5103983;28;19966;-61
2022/07/29 14:16:00;;;;;;;;;;;23.10;43.90;;;;;;5095655;28;19920;-60
2022/07/29 14:18:26;;;;;;;;;;;23.10;43.90;;;;;;5113365;28;19927;-61
2022/07/29 14:20:55;;;;;;;;;;;23.10;43.80;;;;;;5103528;28;19923;-60
2022/07/29 14:23:21;;;;;;;;;;;23.10;43.80;;;;;;5110103;28;19920;-61
2022/07/29 14:25:48;;;;;;;;;;;23.10;43.80;;;;;;5111503;28;20075;-61
2022/07/29 14:28:15;;;;;;;;;;;23.10;43.70;;;;;;5110255;28;19973;-61